Time;durP1;ratioP1;P1;durP2;ratioP2;P2;SDS_P1;SDS_P2;PMS_P1;PMS_P2;Temp;Humidity;BMP_temperature;BMP_pressure;BME280_temperature;BME280_humidity;BME280_pressure;Samples;Min_cycle;Max_cycle;Signal;HPM_P1;HPM_P2
2023/04/30 00:01:14;;;;;;;1193.40;499.93;;;5.90;99.90;;;;;;5052397;28;20037;-87
2023/04/30 00:03:52;;;;;;;1212.80;498.90;;;5.10;99.90;;;;;;5052428;28;20124;-86
2023/04/30 00:06:24;;;;;;;1199.37;491.80;;;5.30;99.90;;;;;;5052400;28;20127;-87
2023/04/30 00:08:50;;;;;;;1173.50;499.27;;;4.70;99.90;;;;;;5052175;28;20079;-87
2023/04/30 00:11:18;;;;;;;1158.17;445.53;;;6.30;99.90;;;;;;5052314;28;20057;-86
2023/04/30 00:18:17;;;;;;;1182.97;444.87;;;4.90;99.90;;;;;;5053086;28;20492;-87
2023/04/30 00:20:43;;;;;;;1211.70;498.17;;;4.90;99.90;;;;;;5058273;28;20048;-87
2023/04/30 00:23:12;;;;;;;1194.67;433.47;;;5.10;99.90;;;;;;5034911;28;20041;-87
2023/04/30 00:25:44;;;;;;;1180.93;444.47;;;5.00;99.90;;;;;;5052827;28;20049;-87
2023/04/30 00:28:22;;;;;;;1209.93;498.50;;;4.80;99.90;;;;;;5053248;28;20044;-87
2023/04/30 00:30:48;;;;;;;1181.70;502.27;;;5.00;99.90;;;;;;5034712;28;20069;-86
2023/04/30 00:33:22;;;;;;;1141.53;427.33;;;3.40;99.90;;;;;;5039866;28;20049;-87
2023/04/30 00:35:50;;;;;;;1146.47;425.57;;;4.90;99.90;;;;;;5051996;28;20056;-86
2023/04/30 00:38:19;;;;;;;1174.50;434.80;;;3.80;99.90;;;;;;5051847;28;20466;-86
2023/04/30 00:40:48;;;;;;;1194.87;498.83;;;4.20;99.90;;;;;;5052694;28;20123;-87
2023/04/30 00:43:16;;;;;;;1221.03;503.53;;;4.80;99.90;;;;;;5053091;28;20116;-86
2023/04/30 00:45:47;;;;;;;1228.13;503.50;;;4.50;99.90;;;;;;5035720;28;20044;-86
2023/04/30 00:48:20;;;;;;;1187.50;429.50;;;4.90;99.90;;;;;;5052866;28;20500;-86
2023/04/30 00:50:46;;;;;;;1169.30;437.50;;;4.70;99.90;;;;;;5051376;28;20124;-86
2023/04/30 00:53:14;;;;;;;1215.90;506.60;;;5.40;99.90;;;;;;5056850;28;20116;-86
2023/04/30 00:55:43;;;;;;;1185.30;431.80;;;5.00;99.90;;;;;;5036704;28;20052;-87
2023/04/30 00:58:11;;;;;;;1188.47;432.13;;;4.00;99.90;;;;;;5052567;28;20452;-86
2023/04/30 01:00:38;;;;;;;1242.93;494.83;;;4.70;99.90;;;;;;5051117;28;20098;-86
2023/04/30 01:03:04;;;;;;;1239.57;496.30;;;4.70;99.90;;;;;;5053790;28;20048;-86
2023/04/30 01:05:29;;;;;;;1236.10;435.40;;;5.00;99.90;;;;;;5058692;28;20049;-86
2023/04/30 01:07:56;;;;;;;1226.80;429.83;;;4.70;99.90;;;;;;5034360;28;20052;-86
2023/04/30 01:10:39;;;;;;;1259.55;492.88;;;3.90;99.90;;;;;;5055023;28;20045;-86
2023/04/30 01:13:19;;;;;;;1212.50;435.87;;;5.30;99.90;;;;;;5051348;28;20142;-86
2023/04/30 01:16:10;;;;;;;1179.93;444.57;;;3.70;99.90;;;;;;5050947;28;20124;-86
2023/04/30 01:18:47;;;;;;;1170.53;503.50;;;4.70;99.90;;;;;;4955604;28;20059;-86
2023/04/30 01:21:18;;;;;;;1183.13;506.80;;;5.10;99.90;;;;;;4974450;28;20553;-86
2023/04/30 01:24:12;;;;;;;1195.20;495.97;;;4.50;99.90;;;;;;4973781;28;20488;-86
2023/04/30 01:27:24;;;;;;;1152.30;431.73;;;4.40;99.90;;;;;;4954928;28;20053;-86
2023/04/30 01:29:54;;;;;;;1169.13;439.03;;;4.50;99.90;;;;;;4960254;28;20090;-86
2023/04/30 01:32:20;;;;;;;1184.27;445.73;;;4.20;99.90;;;;;;4957219;28;20093;-86
2023/04/30 01:34:46;;;;;;;1196.10;473.63;;;4.40;99.90;;;;;;4971252;28;20046;-87
2023/04/30 01:37:29;;;;;;;1238.77;440.80;;;4.50;99.90;;;;;;4971378;28;20587;-86
2023/04/30 01:40:23;;;;;;;1230.53;483.97;;;4.40;99.90;;;;;;4954922;28;20046;-86
2023/04/30 01:43:01;;;;;;;1197.10;497.83;;;4.40;99.90;;;;;;4971029;28;20604;-87
2023/04/30 01:46:00;;;;;;;1209.70;489.03;;;4.50;99.90;;;;;;4969391;28;20051;-88
2023/04/30 01:48:34;;;;;;;1212.40;485.00;;;4.30;99.90;;;;;;4981379;28;20054;-86
2023/04/30 01:51:23;;;;;;;1195.47;426.10;;;4.40;99.90;;;;;;4959247;28;20471;-86
2023/04/30 01:53:49;;;;;;;1176.03;429.63;;;4.30;99.90;;;;;;4974850;28;20099;-86
2023/04/30 01:56:24;;;;;;;1161.07;422.27;;;4.30;99.90;;;;;;5033315;28;20476;-86
2023/04/30 01:58:51;;;;;;;1170.87;429.63;;;4.30;99.90;;;;;;5063235;28;20560;-87
2023/04/30 02:01:44;;;;;;;1202.07;482.53;;;4.90;99.90;;;;;;5054870;28;20072;-86
2023/04/30 02:04:13;;;;;;;1190.60;474.57;;;4.10;99.90;;;;;;5051795;28;20049;-86
2023/04/30 02:06:40;;;;;;;1224.30;434.67;;;4.20;99.90;;;;;;5055551;28;20037;-86
2023/04/30 02:09:19;;;;;;;1222.33;471.70;;;3.90;99.90;;;;;;5056081;28;20123;-86
2023/04/30 02:11:57;;;;;;;1202.57;465.93;;;4.20;99.90;;;;;;5054614;28;20489;-87
2023/04/30 02:14:30;;;;;;;1182.93;455.53;;;5.30;99.90;;;;;;5057221;28;20060;-87
2023/04/30 02:17:02;;;;;;;1253.70;485.03;;;4.10;99.90;;;;;;5054738;28;20051;-86
2023/04/30 02:19:33;;;;;;;1214.63;418.07;;;3.70;99.90;;;;;;5055632;28;20444;-87
2023/04/30 02:22:02;;;;;;;1208.00;430.57;;;4.70;99.90;;;;;;5055410;28;20044;-87
2023/04/30 02:24:48;;;;;;;1194.63;424.50;;;4.10;99.90;;;;;;5054417;28;20127;-87
2023/04/30 02:27:39;;;;;;;1192.07;457.43;;;4.00;99.90;;;;;;5054541;28;20485;-88
2023/04/30 02:30:23;;;;;;;1219.23;466.63;;;4.70;99.90;;;;;;5037671;28;20497;-86
2023/04/30 02:33:04;;;;;;;1214.63;427.63;;;4.00;99.90;;;;;;5055786;28;20040;-87
2023/04/30 02:35:57;;;;;;;1196.53;458.40;;;4.40;99.90;;;;;;5055067;28;20039;-87
2023/04/30 02:38:31;;;;;;;1186.97;457.33;;;4.10;99.90;;;;;;5053919;28;20532;-87
2023/04/30 02:41:01;;;;;;;1217.07;461.60;;;4.20;99.90;;;;;;5054703;28;20393;-87
2023/04/30 02:43:32;;;;;;;1244.00;429.50;;;5.50;99.90;;;;;;5037715;28;20052;-87
2023/04/30 02:46:22;;;;;;;1232.37;427.13;;;4.10;99.90;;;;;;5054763;28;20502;-87
2023/04/30 02:48:53;;;;;;;1241.33;423.93;;;4.50;99.90;;;;;;5054450;28;20080;-87
2023/04/30 02:51:32;;;;;;;1233.37;465.40;;;4.40;99.90;;;;;;5057202;28;20053;-87
2023/04/30 02:54:05;;;;;;;1269.80;476.37;;;3.70;99.90;;;;;;5055168;28;20060;-88
2023/04/30 02:56:38;;;;;;;1263.10;475.00;;;4.20;99.90;;;;;;5061248;28;20052;-87
2023/04/30 02:59:18;;;;;;;1237.23;469.83;;;4.30;99.90;;;;;;5036615;28;20052;-88
2023/04/30 03:01:47;;;;;;;1271.33;422.37;;;4.30;99.90;;;;;;5037390;28;20110;-87
2023/04/30 03:04:22;;;;;;;1263.87;425.30;;;5.20;99.90;;;;;;5054441;28;20071;-88
2023/04/30 03:06:59;;;;;;;1268.77;430.73;;;4.20;99.90;;;;;;5060101;28;20049;-88
2023/04/30 03:09:46;;;;;;;1262.77;426.37;;;4.60;99.90;;;;;;5057386;28;20044;-87
2023/04/30 03:12:40;;;;;;;1242.93;431.43;;;4.40;99.90;;;;;;5054294;28;20057;-88
2023/04/30 03:19:10;;;;;;;1246.73;425.63;;;3.60;99.90;;;;;;5054359;28;20032;-87
2023/04/30 03:21:36;;;;;;;1247.77;424.43;;;4.30;99.90;;;;;;5055691;28;20378;-87
2023/04/30 03:24:21;;;;;;;1145.20;433.57;;;5.70;99.90;;;;;;5058341;28;20061;-86
2023/04/30 03:27:13;;;;;;;;;;;;;;;;;;;;;
2023/04/30 03:33:51;;;;;;;1239.77;424.73;;;4.30;99.90;;;;;;5054328;28;20059;-87
2023/04/30 03:36:29;;;;;;;1254.73;425.97;;;4.40;99.90;;;;;;5053169;28;20056;-87
2023/04/30 03:39:15;;;;;;;1254.20;425.77;;;4.40;99.90;;;;;;5052689;28;20041;-87
2023/04/30 03:42:04;;;;;;;1252.93;430.92;;;5.00;99.90;;;;;;5053689;28;20501;-87
2023/04/30 03:44:48;;;;;;;1220.07;477.30;;;5.40;99.90;;;;;;5052511;28;20146;-87
2023/04/30 03:47:37;;;;;;;1178.17;430.43;;;4.10;99.90;;;;;;5052722;28;20125;-87
2023/04/30 03:50:30;;;;;;;;;;;;;;;;;;;;;
2023/04/30 03:53:12;;;;;;;1079.30;453.40;;;4.20;99.90;;;;;;5058447;28;20063;-88
2023/04/30 03:56:25;;;;;;;;;;;;;;;;;;;;;
2023/04/30 03:59:05;;;;;;;1110.60;449.77;;;4.70;99.90;;;;;;5053106;28;20067;-88
2023/04/30 04:01:37;;;;;;;1170.33;470.87;;;4.20;99.90;;;;;;5051407;28;20045;-87
2023/04/30 04:04:06;;;;;;;1176.87;449.37;;;3.30;99.90;;;;;;5052433;28;20033;-86
2023/04/30 04:06:38;;;;;;;1175.53;472.07;;;4.00;99.90;;;;;;5053580;28;20390;-86
2023/04/30 04:09:03;;;;;;;1191.20;430.13;;;4.10;99.90;;;;;;5058910;28;20053;-87
2023/04/30 04:11:29;;;;;;;1192.47;473.20;;;4.50;99.90;;;;;;5061109;28;20040;-87
2023/04/30 04:13:57;;;;;;;1186.93;443.40;;;4.10;99.90;;;;;;5053597;28;20040;-86
2023/04/30 04:16:25;;;;;;;1185.50;476.57;;;3.80;99.90;;;;;;5052151;28;20048;-86
2023/04/30 04:18:51;;;;;;;1141.80;463.20;;;4.90;99.90;;;;;;5053293;28;20033;-86
2023/04/30 04:21:17;;;;;;;1183.63;432.33;;;4.00;99.90;;;;;;5035558;28;20049;-87
2023/04/30 04:23:43;;;;;;;1174.13;429.90;;;5.50;99.90;;;;;;5034996;28;20080;-86
2023/04/30 04:26:12;;;;;;;1169.50;468.33;;;4.30;99.90;;;;;;5059819;28;20056;-86
2023/04/30 04:28:38;;;;;;;1164.63;464.37;;;4.10;99.90;;;;;;5055693;28;20072;-86
2023/04/30 04:31:03;;;;;;;1152.00;484.17;;;4.20;99.90;;;;;;5052809;28;20072;-86
2023/04/30 04:33:29;;;;;;;1142.63;459.57;;;4.00;99.90;;;;;;5052363;28;20515;-86
2023/04/30 04:35:56;;;;;;;1136.77;455.17;;;4.10;99.90;;;;;;5051775;28;20061;-86
2023/04/30 04:38:25;;;;;;;1184.63;423.97;;;4.20;99.90;;;;;;5035178;28;20052;-87
2023/04/30 04:40:55;;;;;;;1197.33;427.93;;;5.00;99.90;;;;;;5051458;28;20071;-86
2023/04/30 04:43:24;;;;;;;1188.97;422.57;;;3.40;99.90;;;;;;5035007;28;20053;-87
2023/04/30 04:45:51;;;;;;;1191.43;426.87;;;4.60;99.90;;;;;;5052944;28;20064;-87
2023/04/30 04:48:17;;;;;;;1134.87;417.80;;;6.20;99.90;;;;;;5060220;28;20047;-87
2023/04/30 04:50:46;;;;;;;1136.77;448.10;;;5.50;99.90;;;;;;5053005;28;20389;-87
2023/04/30 04:53:17;;;;;;;1135.53;454.23;;;5.30;99.90;;;;;;5053867;28;20044;-87
2023/04/30 04:55:46;;;;;;;1111.50;420.47;;;6.00;99.90;;;;;;5051386;28;20561;-87
2023/04/30 04:58:17;;;;;;;1166.87;421.77;;;4.90;99.90;;;;;;5034540;28;20493;-87
2023/04/30 05:00:44;;;;;;;1042.50;476.37;;;5.50;99.90;;;;;;5051570;28;20486;-87
2023/04/30 05:03:10;;;;;;;1163.40;427.77;;;4.70;99.90;;;;;;5050931;28;20311;-86
2023/04/30 05:05:38;;;;;;;1140.10;455.03;;;4.40;99.90;;;;;;5052852;28;20041;-86
2023/04/30 05:08:04;;;;;;;1020.40;433.27;;;4.60;99.90;;;;;;5036966;28;21614;-86
2023/04/30 05:10:29;;;;;;;1136.70;446.67;;;5.00;99.90;;;;;;5054146;28;20056;-86
2023/04/30 05:12:55;;;;;;;1193.23;429.23;;;5.20;99.90;;;;;;5053213;28;20037;-86
2023/04/30 05:15:27;;;;;;;1144.90;446.00;;;5.20;99.90;;;;;;5037201;28;20210;-86
2023/04/30 05:17:55;;;;;;;903.35;423.83;;;5.20;99.90;;;;;;5053699;28;20037;-86
2023/04/30 05:20:23;;;;;;;1037.10;432.03;;;5.20;99.90;;;;;;5053611;28;20045;-86
2023/04/30 05:22:49;;;;;;;1140.83;450.57;;;5.20;99.90;;;;;;5056604;28;20053;-86
2023/04/30 05:25:15;;;;;;;1185.43;467.10;;;6.80;99.90;;;;;;5034870;28;20126;-87
2023/04/30 05:27:41;;;;;;;1108.07;458.47;;;5.30;99.90;;;;;;5051843;28;20041;-86
2023/04/30 05:30:10;;;;;;;1215.17;440.60;;;5.50;99.90;;;;;;5051035;28;20055;-86
2023/04/30 05:32:36;;;;;;;1124.77;457.60;;;5.50;99.90;;;;;;5051653;28;20381;-86
2023/04/30 05:35:12;;;;;;;1172.57;442.30;;;5.60;99.90;;;;;;5051827;28;20068;-87
2023/04/30 05:37:56;;;;;;;1156.47;443.03;;;5.50;99.90;;;;;;5051475;28;20044;-87
2023/04/30 05:40:30;;;;;;;1162.37;496.03;;;6.30;99.90;;;;;;5051318;28;20579;-87
2023/04/30 05:43:23;;;;;;;1161.27;471.07;;;6.30;99.90;;;;;;5050362;28;20247;-87
2023/04/30 06:04:16;;;;;;;1184.40;472.53;;;7.00;99.90;;;;;;5059288;28;20184;-86
2023/04/30 06:06:42;;;;;;;1194.07;491.93;;;7.20;99.90;;;;;;5065140;28;20477;-86
2023/04/30 06:09:08;;;;;;;1223.67;528.00;;;7.20;99.90;;;;;;5050615;28;20056;-86
2023/04/30 06:11:36;;;;;;;1186.30;487.27;;;7.30;99.90;;;;;;5050793;28;20068;-88
2023/04/30 06:14:03;;;;;;;1197.47;519.67;;;8.00;99.90;;;;;;5049757;28;20061;-86
2023/04/30 06:16:31;;;;;;;1198.17;484.43;;;7.50;99.90;;;;;;5051030;28;20444;-86
2023/04/30 06:18:57;;;;;;;1193.87;475.87;;;7.60;99.90;;;;;;5050589;28;20048;-86
2023/04/30 06:21:25;;;;;;;1213.40;550.10;;;7.60;99.90;;;;;;5051395;28;20045;-86
2023/04/30 06:23:54;;;;;;;1150.60;477.73;;;8.50;99.90;;;;;;5051370;28;20045;-86
2023/04/30 06:26:29;;;;;;;1169.67;541.67;;;7.80;99.90;;;;;;5051351;28;20044;-88
2023/04/30 06:28:57;;;;;;;1143.18;484.10;;;7.90;99.90;;;;;;5053859;28;20040;-87
2023/04/30 06:31:26;;;;;;;1174.13;501.37;;;8.00;99.90;;;;;;5051306;28;20049;-88
2023/04/30 06:33:54;;;;;;;1044.03;465.23;;;9.00;99.90;;;;;;5061650;28;21145;-86
2023/04/30 06:36:20;;;;;;;1177.23;505.63;;;8.10;99.90;;;;;;5054711;28;20041;-86
2023/04/30 06:38:46;;;;;;;1066.70;471.60;;;8.20;99.90;;;;;;5053804;28;20039;-85
2023/04/30 06:41:12;;;;;;;1194.93;485.77;;;8.20;99.90;;;;;;5055168;28;20175;-86
2023/04/30 06:43:46;;;;;;;1200.50;484.57;;;8.20;99.90;;;;;;5054290;28;20500;-89
2023/04/30 06:46:15;;;;;;;1196.43;491.43;;;7.70;99.90;;;;;;5055705;28;20055;-91
2023/04/30 06:48:41;;;;;;;1145.80;504.87;;;8.40;99.90;;;;;;5058718;28;20033;-87
2023/04/30 06:51:35;;;;;;;1185.27;521.13;;;9.20;99.90;;;;;;5066883;28;20045;-89
2023/04/30 06:54:06;;;;;;;1156.80;542.23;;;7.80;99.90;;;;;;4960101;28;20059;-88
2023/04/30 06:56:37;;;;;;;1176.93;515.07;;;8.70;99.90;;;;;;4958730;28;20054;-88
2023/04/30 06:59:03;;;;;;;1143.80;500.30;;;8.80;99.90;;;;;;4957502;28;20055;-87
2023/04/30 07:01:31;;;;;;;1156.67;525.60;;;8.80;99.90;;;;;;4973535;28;20081;-86
2023/04/30 07:03:58;;;;;;;1193.03;540.40;;;8.70;99.90;;;;;;4973692;28;20039;-86
2023/04/30 07:06:32;;;;;;;1228.00;540.13;;;8.90;99.90;;;;;;4958284;28;20141;-87
2023/04/30 07:08:58;;;;;;;1148.73;472.47;;;8.90;99.90;;;;;;4957749;28;20035;-86
2023/04/30 07:11:24;;;;;;;1157.57;541.67;;;9.00;99.90;;;;;;4977731;28;20377;-88
2023/04/30 07:13:50;;;;;;;1160.13;497.57;;;9.10;99.90;;;;;;4973775;28;20043;-86
2023/04/30 07:16:16;;;;;;;1190.33;566.57;;;9.20;99.90;;;;;;4974152;28;20042;-85
2023/04/30 07:18:42;;;;;;;1137.23;550.27;;;9.20;99.90;;;;;;4973505;28;20065;-86
2023/04/30 07:21:08;;;;;;;1199.43;504.27;;;9.40;99.90;;;;;;4973497;28;20066;-86
2023/04/30 07:23:34;;;;;;;1216.87;503.30;;;10.40;99.90;;;;;;4957875;28;20998;-86
2023/04/30 07:26:00;;;;;;;1217.83;513.57;;;9.60;99.90;;;;;;4974090;28;20534;-87
2023/04/30 07:28:25;;;;;;;1249.67;549.07;;;9.60;99.90;;;;;;4956868;28;20042;-86
2023/04/30 07:30:52;;;;;;;1247.93;547.67;;;9.60;99.90;;;;;;5012459;28;20053;-86
2023/04/30 07:33:17;;;;;;;1210.17;551.50;;;9.70;99.90;;;;;;5036502;28;20052;-86
2023/04/30 07:35:43;;;;;;;1209.77;507.73;;;9.90;99.90;;;;;;5053784;28;20045;-87
2023/04/30 07:38:09;;;;;;;1205.73;526.17;;;10.50;99.90;;;;;;5060942;28;20116;-86
2023/04/30 07:40:35;;;;;;;1265.50;576.77;;;9.90;99.90;;;;;;5036244;28;20056;-86
2023/04/30 07:43:01;;;;;;;1250.17;556.10;;;10.10;99.90;;;;;;5053949;28;20118;-86
2023/04/30 07:45:27;;;;;;;1235.17;516.50;;;10.20;99.90;;;;;;5053894;28;20622;-86
2023/04/30 07:47:52;;;;;;;1248.43;542.53;;;10.30;99.90;;;;;;5055625;28;20037;-86
2023/04/30 07:50:18;;;;;;;1203.77;548.53;;;10.40;99.90;;;;;;5056574;28;20044;-86
2023/04/30 07:52:44;;;;;;;1263.37;640.60;;;10.60;99.90;;;;;;5060923;28;20056;-87
2023/04/30 07:55:10;;;;;;;1210.40;549.40;;;10.60;99.90;;;;;;5053681;28;20126;-86
2023/04/30 07:57:36;;;;;;;1233.87;566.43;;;10.80;99.90;;;;;;5052557;28;20107;-87
2023/04/30 08:00:02;;;;;;;1242.60;577.07;;;10.80;99.90;;;;;;5052807;28;20124;-86
2023/04/30 08:02:28;;;;;;;1191.67;571.83;;;11.00;99.90;;;;;;5064371;28;20049;-86
2023/04/30 08:04:54;;;;;;;1237.17;592.63;;;11.20;99.90;;;;;;5053543;28;20461;-87
2023/04/30 08:07:24;;;;;;;1215.53;577.20;;;11.20;99.90;;;;;;5052398;28;20433;-86
2023/04/30 08:09:50;;;;;;;1204.40;570.43;;;11.20;99.90;;;;;;5052081;28;20072;-87
2023/04/30 08:12:23;;;;;;;1247.83;572.07;;;11.30;99.90;;;;;;5051771;28;20548;-86
2023/04/30 08:14:49;;;;;;;1224.87;630.97;;;11.40;99.90;;;;;;5052271;28;20041;-86
2023/04/30 08:17:15;;;;;;;1196.13;579.93;;;11.50;99.90;;;;;;5051989;28;20029;-86
2023/04/30 08:19:43;;;;;;;1214.70;610.60;;;11.50;99.90;;;;;;5035746;28;20451;-87
2023/04/30 08:22:09;;;;;;;1253.63;643.53;;;11.50;99.90;;;;;;5052430;28;20401;-87
2023/04/30 08:24:37;;;;;;;1292.90;649.60;;;11.60;99.90;;;;;;5059267;28;20471;-87
2023/04/30 08:27:05;;;;;;;1269.37;616.90;;;11.70;99.90;;;;;;5052823;28;20401;-88
2023/04/30 08:29:31;;;;;;;1285.73;641.93;;;11.80;99.90;;;;;;5052144;28;20053;-87
2023/04/30 08:32:01;;;;;;;1197.97;620.27;;;11.90;99.90;;;;;;5051875;28;20520;-88
2023/04/30 08:34:27;;;;;;;1266.57;677.03;;;12.00;99.90;;;;;;5035451;28;20045;-86
2023/04/30 08:36:53;;;;;;;1231.13;621.70;;;12.00;99.90;;;;;;5051731;28;20051;-87
2023/04/30 08:39:18;;;;;;;1225.20;641.27;;;12.10;99.90;;;;;;5051824;28;20041;-87
2023/04/30 08:41:49;;;;;;;1223.37;638.93;;;12.10;99.90;;;;;;5055369;28;20037;-87
2023/04/30 08:44:18;;;;;;;1212.83;617.90;;;12.20;99.90;;;;;;5052870;28;20106;-87
2023/04/30 08:46:44;;;;;;;1199.00;638.60;;;12.50;99.90;;;;;;5051405;28;20033;-86
2023/04/30 08:49:10;;;;;;;1275.67;658.90;;;12.20;99.90;;;;;;5052871;28;20091;-87
2023/04/30 08:51:39;;;;;;;1344.70;640.50;;;12.20;99.90;;;;;;5051867;28;20041;-86
2023/04/30 08:54:13;;;;;;;1114.87;610.37;;;12.30;99.90;;;;;;5058176;28;20056;-87
2023/04/30 08:56:40;;;;;;;949.00;407.97;;;12.50;99.90;;;;;;5035653;28;20296;-88
2023/04/30 08:59:06;;;;;;;1301.50;570.13;;;12.30;99.90;;;;;;5051276;28;20383;-87
2023/04/30 09:01:35;;;;;;;1240.33;580.87;;;12.30;99.90;;;;;;5052011;28;20320;-87
2023/04/30 09:04:03;;;;;;;1218.83;612.37;;;12.40;99.90;;;;;;5037425;28;20303;-87
2023/04/30 09:06:31;;;;;;;624.15;359.08;;;12.40;99.90;;;;;;5059540;28;20697;-87
2023/04/30 09:09:14;;;;;;;983.27;461.80;;;12.40;99.90;;;;;;5034856;28;20373;-86
2023/04/30 09:11:40;;;;;;;1059.43;553.40;;;12.30;99.90;;;;;;5051111;28;20291;-86
2023/04/30 09:14:09;;;;;;;967.13;479.47;;;12.40;99.90;;;;;;5051642;28;20299;-87
2023/04/30 09:16:49;;;;;;;921.57;455.00;;;12.70;99.90;;;;;;5034331;28;20295;-87
2023/04/30 09:19:31;;;;;;;985.53;496.97;;;12.70;99.90;;;;;;5052016;28;20497;-87
2023/04/30 09:21:57;;;;;;;953.80;482.93;;;12.60;99.90;;;;;;5052211;28;20297;-87
2023/04/30 09:24:24;;;;;;;990.27;600.87;;;12.80;99.90;;;;;;5050500;28;20295;-87
2023/04/30 09:26:50;;;;;;;1052.60;643.25;;;12.90;99.90;;;;;;5052109;28;20383;-87
2023/04/30 09:29:21;;;;;;;763.50;491.20;;;12.90;99.90;;;;;;5050723;28;20175;-88
2023/04/30 09:31:47;;;;;;;1014.53;516.15;;;13.00;99.90;;;;;;5059006;28;20045;-85
2023/04/30 09:34:32;;;;;;;1043.77;597.63;;;13.20;99.90;;;;;;5034672;28;20048;-89
2023/04/30 09:37:01;;;;;;;672.90;231.10;;;13.70;99.90;;;;;;5051938;28;20045;-84
2023/04/30 09:39:27;;;;;;;924.17;468.57;;;13.30;99.90;;;;;;5050704;28;20041;-82
2023/04/30 09:42:07;;;;;;;702.78;214.32;;;13.40;99.90;;;;;;5052673;28;20097;-84
2023/04/30 09:44:37;;;;;;;668.10;215.80;;;13.50;99.90;;;;;;5053815;28;20258;-85
2023/04/30 09:47:03;;;;;;;831.87;247.00;;;13.50;99.90;;;;;;5057717;28;20298;-83
2023/04/30 09:49:30;;;;;;;725.83;219.90;;;13.50;99.90;;;;;;5051178;28;20388;-85
2023/04/30 09:52:00;;;;;;;822.80;464.60;;;13.50;99.90;;;;;;5051083;28;20279;-86
2023/04/30 09:54:39;;;;;;;918.10;445.33;;;13.50;99.90;;;;;;5058217;28;20288;-87
2023/04/30 09:57:09;;;;;;;1003.43;570.10;;;14.10;99.90;;;;;;5050641;28;20295;-86
2023/04/30 09:59:43;;;;;;;952.90;526.63;;;13.60;99.90;;;;;;5052397;28;20671;-88
2023/04/30 10:02:12;;;;;;;958.67;384.97;;;13.60;99.90;;;;;;5051346;28;20295;-86
2023/04/30 10:04:40;;;;;;;980.83;464.67;;;13.70;99.90;;;;;;5057619;28;20372;-85
2023/04/30 10:07:20;;;;;;;966.67;513.77;;;13.80;99.90;;;;;;5040526;28;20805;-86
2023/04/30 10:10:04;;;;;;;937.37;545.33;;;14.00;99.90;;;;;;5054206;28;20310;-86
2023/04/30 10:12:53;;;;;;;805.57;435.33;;;14.20;99.90;;;;;;5056030;28;20341;-88
2023/04/30 10:15:29;;;;;;;904.33;551.40;;;14.30;99.90;;;;;;5054376;28;20299;-85
2023/04/30 10:18:22;;;;;;;919.40;512.58;;;14.50;99.90;;;;;;5054180;28;20303;-86
2023/04/30 10:20:52;;;;;;;978.77;496.53;;;14.60;99.90;;;;;;5058583;28;20047;-85
2023/04/30 10:23:21;;;;;;;971.17;556.23;;;14.70;99.90;;;;;;5039002;28;20303;-85
2023/04/30 10:25:49;;;;;;;934.70;425.70;;;14.70;99.90;;;;;;5053734;28;20311;-85
2023/04/30 10:28:15;;;;;;;924.23;394.70;;;14.70;99.80;;;;;;5060359;28;20687;-85
2023/04/30 10:30:42;;;;;;;914.47;438.03;;;14.60;99.50;;;;;;5062861;28;20306;-85
2023/04/30 10:33:14;;;;;;;897.17;334.17;;;14.70;99.90;;;;;;5057198;28;20044;-86
2023/04/30 10:36:04;;;;;;;958.30;406.53;;;14.90;99.90;;;;;;5053561;28;20292;-84
2023/04/30 10:38:32;;;;;;;839.90;272.67;;;15.00;99.90;;;;;;4958325;28;20309;-85
2023/04/30 10:41:02;;;;;;;900.77;321.50;;;15.20;99.90;;;;;;4974073;28;20328;-85
2023/04/30 10:43:31;;;;;;;904.60;320.83;;;15.30;99.90;;;;;;4960442;28;20312;-86
2023/04/30 10:45:58;;;;;;;862.50;280.53;;;15.50;99.90;;;;;;4961605;28;20313;-85
2023/04/30 10:48:29;;;;;;;902.00;320.67;;;15.60;99.90;;;;;;4968698;28;20301;-86
2023/04/30 10:51:00;;;;;;;915.23;319.80;;;16.20;99.90;;;;;;4970871;28;20412;-85
2023/04/30 10:53:42;;;;;;;900.93;404.67;;;15.80;99.20;;;;;;4993199;28;20301;-87
2023/04/30 10:56:08;;;;;;;848.57;316.60;;;16.10;99.90;;;;;;4956366;28;20507;-84
2023/04/30 10:58:37;;;;;;;876.03;397.33;;;15.80;98.00;;;;;;4978298;28;20340;-84
2023/04/30 11:01:31;;;;;;;816.67;255.60;;;16.10;99.50;;;;;;4973893;28;20058;-87
2023/04/30 11:04:10;;;;;;;912.10;295.30;;;15.50;99.50;;;;;;4960737;28;20913;-86
2023/04/30 11:07:21;;;;;;;833.57;249.80;;;16.50;99.90;;;;;;4973877;28;20852;-88
2023/04/30 11:09:56;;;;;;;857.93;264.03;;;17.50;99.90;;;;;;4959489;28;20284;-87
2023/04/30 11:12:40;;;;;;;824.47;238.80;;;17.70;99.90;;;;;;4964072;28;20290;-87
2023/04/30 11:15:15;;;;;;;858.93;262.00;;;17.40;99.90;;;;;;4997057;28;20413;-87
2023/04/30 11:21:22;;;;;;;847.80;259.73;;;17.80;98.70;;;;;;5055088;28;20036;-85
2023/04/30 11:23:48;;;;;;;824.17;247.03;;;17.40;99.00;;;;;;5054572;28;20300;-84
2023/04/30 11:26:14;;;;;;;938.43;318.10;;;17.80;97.40;;;;;;5053191;28;20067;-85
2023/04/30 11:28:51;;;;;;;851.87;251.53;;;17.20;97.10;;;;;;5059561;28;20300;-83
2023/04/30 11:31:17;;;;;;;889.40;275.87;;;17.30;98.60;;;;;;5054457;28;20052;-84
2023/04/30 11:33:43;;;;;;;907.57;348.67;;;17.40;98.70;;;;;;5058313;28;20290;-83
2023/04/30 11:36:08;;;;;;;951.13;316.10;;;17.60;98.90;;;;;;5055335;28;20045;-85
2023/04/30 11:38:35;;;;;;;935.33;303.67;;;17.80;99.00;;;;;;5053135;28;20485;-85
2023/04/30 11:41:02;;;;;;;901.53;307.87;;;18.00;97.00;;;;;;5054079;28;20045;-85
2023/04/30 11:43:30;;;;;;;829.60;333.63;;;18.00;97.40;;;;;;5072681;28;20039;-84
2023/04/30 11:46:05;;;;;;;881.00;386.27;;;18.10;98.00;;;;;;5063108;28;20090;-85
2023/04/30 11:48:36;;;;;;;915.72;402.23;;;18.30;97.50;;;;;;5073562;28;20481;-83
2023/04/30 11:51:06;;;;;;;892.67;352.27;;;18.40;97.00;;;;;;5052759;28;20390;-85
2023/04/30 11:53:32;;;;;;;887.33;403.20;;;18.50;93.90;;;;;;5053893;28;20051;-85
2023/04/30 11:56:07;;;;;;;891.50;298.70;;;18.40;94.80;;;;;;5068864;28;20108;-88
2023/04/30 11:58:37;;;;;;;916.60;352.80;;;18.20;95.00;;;;;;5056162;28;20102;-87
2023/04/30 12:01:16;;;;;;;904.27;381.47;;;18.20;93.50;;;;;;5052968;28;20055;-86
2023/04/30 12:03:51;;;;;;;898.43;388.00;;;18.10;93.70;;;;;;5039729;28;20595;-85
2023/04/30 12:06:22;;;;;;;872.37;379.03;;;18.10;93.20;;;;;;5035058;28;20057;-84
2023/04/30 12:08:48;;;;;;;902.40;334.03;;;18.20;95.80;;;;;;5043405;28;20088;-84
2023/04/30 12:11:25;;;;;;;909.57;338.73;;;18.20;95.60;;;;;;5030048;28;20068;-85
2023/04/30 12:14:02;;;;;;;866.17;321.33;;;18.40;95.20;;;;;;5016907;28;20063;-84
2023/04/30 12:16:44;;;;;;;894.40;324.33;;;18.40;96.50;;;;;;5031603;28;20052;-85
2023/04/30 12:19:11;;;;;;;871.83;327.67;;;18.60;95.50;;;;;;5014407;28;20060;-85
2023/04/30 12:21:40;;;;;;;847.23;332.57;;;18.70;95.60;;;;;;5032812;28;20088;-84
2023/04/30 12:26:46;;;;;;;941.10;349.43;;;18.60;96.00;;;;;;5043935;22;20054;-87
2023/04/30 12:32:34;;;;;;;898.23;295.17;;;18.80;93.80;;;;;;5136016;22;20397;-88
2023/04/30 12:35:00;;;;;;;910.13;373.70;;;19.00;95.20;;;;;;5016001;28;20130;-86
2023/04/30 12:37:26;;;;;;;905.60;317.17;;;19.70;95.60;;;;;;5014201;28;20037;-88
2023/04/30 12:40:39;;;;;;;945.93;327.90;;;19.10;94.80;;;;;;5015374;28;20057;-89
2023/04/30 12:43:17;;;;;;;891.97;374.30;;;19.30;94.70;;;;;;4937361;29;20054;-89
2023/04/30 12:53:48;;;;;;;887.77;469.83;;;20.00;93.60;;;;;;5083532;22;20061;-89
2023/04/30 12:56:22;;;;;;;888.23;354.07;;;21.00;93.10;;;;;;4979381;28;20773;-89
2023/04/30 12:59:19;;;;;;;926.80;537.20;;;19.60;92.60;;;;;;4977501;28;20062;-88
2023/04/30 13:01:52;;;;;;;828.77;250.90;;;19.80;93.70;;;;;;4960910;28;20050;-88
2023/04/30 13:04:34;;;;;;;875.47;257.07;;;19.60;94.90;;;;;;4907410;29;20425;-88
2023/04/30 13:08:08;;;;;;;903.47;417.03;;;19.90;95.20;;;;;;4901319;29;20080;-91
2023/04/30 13:27:17;;;;;;;;;;;20.00;92.80;;;;;;5506932;23;20058;-92
2023/04/30 13:32:30;;;;;;;852.73;252.50;;;20.00;94.70;;;;;;5061235;22;20503;-88
2023/04/30 13:37:41;;;;;;;764.53;246.50;;;20.10;92.70;;;;;;5256008;23;20054;-88
2023/04/30 13:40:57;;;;;;;778.47;234.93;;;20.10;94.10;;;;;;4999548;28;20057;-89
2023/04/30 13:51:38;;;;;;;875.90;249.67;;;20.50;94.50;;;;;;4902048;29;20047;-92
2023/04/30 13:54:50;;;;;;;842.37;243.30;;;20.80;91.10;;;;;;4901252;29;20387;-93
2023/04/30 13:57:16;;;;;;;884.17;252.00;;;20.70;93.90;;;;;;4902798;29;20056;-91